Time;durP1;ratioP1;P1;durP2;ratioP2;P2;SDS_P1;SDS_P2;PMS_P1;PMS_P2;Temp;Humidity;BMP_temperature;BMP_pressure;BME280_temperature;BME280_humidity;BME280_pressure;Samples;Min_cycle;Max_cycle;Signal;HPM_P1;HPM_P2
2023/10/13 00:01:34;;;;;;;11.00;3.53;;;17.10;10.90;;;;;;4998286;28;46498;-86
2023/10/13 00:04:01;;;;;;;8.40;3.50;;;17.10;11.00;;;;;;5001783;28;46691;-88
2023/10/13 00:06:27;;;;;;;9.40;3.00;;;17.00;11.30;;;;;;4999559;28;46475;-87
2023/10/13 00:08:53;;;;;;;7.80;2.73;;;17.00;11.30;;;;;;4999665;28;46802;-86
2023/10/13 00:11:19;;;;;;;9.30;3.03;;;17.00;11.20;;;;;;5001185;28;46169;-88
2023/10/13 00:13:50;;;;;;;7.47;2.97;;;17.00;11.20;;;;;;5001014;28;46439;-87
2023/10/13 00:16:17;;;;;;;8.30;2.60;;;17.10;11.10;;;;;;5001964;28;46677;-88
2023/10/13 00:18:43;;;;;;;8.57;3.00;;;17.00;11.00;;;;;;5001108;28;46613;-86
2023/10/13 00:21:13;;;;;;;9.33;3.20;;;17.00;10.90;;;;;;5002179;28;46399;-87
2023/10/13 00:23:52;;;;;;;10.23;2.80;;;17.10;11.00;;;;;;4999510;28;46502;-86
2023/10/13 00:26:27;;;;;;;7.03;3.00;;;17.20;10.90;;;;;;5001752;28;46506;-86
2023/10/13 00:31:42;;;;;;;12.43;3.20;;;17.00;10.60;;;;;;5002950;28;46478;-84
2023/10/13 00:34:12;;;;;;;9.70;3.63;;;16.90;10.50;;;;;;5000531;28;46539;-86
2023/10/13 00:36:47;;;;;;;6.33;3.20;;;17.00;10.70;;;;;;4999960;28;46604;-86
2023/10/13 00:39:15;;;;;;;10.53;3.20;;;16.90;10.50;;;;;;4999636;28;47444;-86
2023/10/13 00:41:52;;;;;;;7.67;3.03;;;16.90;10.60;;;;;;4996597;28;46557;-85
2023/10/13 00:44:28;;;;;;;14.37;3.70;;;16.80;10.30;;;;;;5001114;28;46475;-87
2023/10/13 00:46:56;;;;;;;11.23;3.30;;;16.80;10.30;;;;;;4987616;28;46801;-86
2023/10/13 00:49:23;;;;;;;9.73;2.83;;;16.80;10.20;;;;;;5001217;28;46970;-85
2023/10/13 00:51:49;;;;;;;12.30;3.30;;;16.80;10.20;;;;;;4999972;28;45902;-86
2023/10/13 00:54:18;;;;;;;9.27;3.23;;;16.70;10.20;;;;;;5002843;28;46673;-86
2023/10/13 00:56:48;;;;;;;8.77;3.00;;;16.70;10.30;;;;;;4999507;28;45979;-86
2023/10/13 00:59:16;;;;;;;7.07;3.17;;;16.70;10.10;;;;;;5003616;28;48125;-86
2023/10/13 01:01:43;;;;;;;10.30;2.80;;;16.70;10.10;;;;;;5001774;28;46454;-87
2023/10/13 01:04:12;;;;;;;13.50;4.10;;;16.70;10.90;;;;;;5003993;28;46525;-86
2023/10/13 01:06:38;;;;;;;12.57;3.30;;;16.80;9.90;;;;;;4988215;28;46472;-87
2023/10/13 01:09:13;;;;;;;13.07;3.30;;;16.80;9.80;;;;;;5004194;28;47277;-86
2023/10/13 01:11:44;;;;;;;8.53;3.33;;;16.70;9.50;;;;;;5001516;28;46419;-86
2023/10/13 01:14:18;;;;;;;10.50;3.17;;;16.90;9.70;;;;;;5002107;28;45964;-86
2023/10/13 01:16:44;;;;;;;8.03;3.37;;;16.90;9.50;;;;;;4997245;28;47798;-86
2023/10/13 01:19:12;;;;;;;10.60;3.30;;;16.80;9.20;;;;;;5001546;28;49232;-86
2023/10/13 01:21:40;;;;;;;5.90;2.73;;;17.00;9.20;;;;;;5002487;28;46769;-84
2023/10/13 01:24:07;;;;;;;13.80;3.20;;;16.90;9.10;;;;;;5003870;28;46526;-87
2023/10/13 01:26:40;;;;;;;10.50;3.50;;;16.90;9.10;;;;;;4994056;28;46614;-86
2023/10/13 01:29:11;;;;;;;8.47;3.10;;;16.90;9.20;;;;;;5002311;28;48037;-84
2023/10/13 01:31:45;;;;;;;11.00;3.40;;;16.90;9.20;;;;;;4999937;28;46604;-87
2023/10/13 01:34:21;;;;;;;7.27;3.20;;;17.00;9.20;;;;;;5001849;28;46473;-86
2023/10/13 01:36:55;;;;;;;9.70;3.13;;;16.70;9.50;;;;;;5004858;28;46574;-86
2023/10/13 01:39:28;;;;;;;12.13;3.00;;;16.70;9.70;;;;;;5006973;28;46568;-86
2023/10/13 01:41:57;;;;;;;7.27;3.47;;;16.60;9.90;;;;;;5006367;28;46548;-82
2023/10/13 01:44:28;;;;;;;11.00;4.00;;;16.70;10.10;;;;;;5004536;28;46492;-81
2023/10/13 01:46:53;;;;;;;6.93;3.23;;;16.60;10.30;;;;;;5000676;28;46394;-86
2023/10/13 01:49:21;;;;;;;10.90;3.20;;;16.40;10.40;;;;;;4997440;28;48542;-85
2023/10/13 01:51:47;;;;;;;6.00;2.80;;;16.30;10.50;;;;;;5007237;28;46587;-84
2023/10/13 01:54:15;;;;;;;10.70;3.57;;;16.20;10.60;;;;;;5006660;28;46463;-86
2023/10/13 01:56:44;;;;;;;7.67;3.50;;;16.30;10.70;;;;;;5008002;28;46863;-85
2023/10/13 01:59:13;;;;;;;10.37;3.40;;;16.10;10.70;;;;;;4997956;28;46655;-86
2023/10/13 02:01:40;;;;;;;5.43;2.40;;;16.10;10.80;;;;;;5001107;28;46776;-84
2023/10/13 02:04:06;;;;;;;8.43;3.60;;;16.00;10.90;;;;;;5003138;28;46350;-84
2023/10/13 02:06:38;;;;;;;10.20;3.23;;;15.90;11.00;;;;;;5000707;28;46437;-85
2023/10/13 02:09:24;;;;;;;15.27;3.60;;;15.80;10.30;;;;;;5004396;28;47694;-86
2023/10/13 02:11:54;;;;;;;16.43;2.83;;;15.70;11.30;;;;;;5003860;28;46245;-84
2023/10/13 02:14:22;;;;;;;11.37;3.50;;;15.70;11.40;;;;;;5003110;28;46433;-86
2023/10/13 02:16:50;;;;;;;8.20;3.00;;;15.60;11.30;;;;;;5005881;28;45876;-86
2023/10/13 02:19:19;;;;;;;7.53;3.23;;;;;;;;;;5004412;28;49075;-86
2023/10/13 02:21:45;;;;;;;11.47;3.27;;;15.30;11.10;;;;;;5003360;28;46372;-85
2023/10/13 02:24:17;;;;;;;11.40;3.03;;;15.20;11.90;;;;;;5002899;28;46441;-86
2023/10/13 02:26:44;;;;;;;11.60;3.93;;;15.10;11.40;;;;;;5006331;28;46437;-86
2023/10/13 02:29:13;;;;;;;10.53;3.57;;;15.00;11.40;;;;;;5003631;28;46574;-86
2023/10/13 02:31:40;;;;;;;13.70;3.17;;;14.90;12.40;;;;;;5004252;28;46599;-86
2023/10/13 02:34:11;;;;;;;9.07;3.33;;;14.80;12.60;;;;;;5005818;28;46342;-86
2023/10/13 02:36:54;;;;;;;11.10;3.27;;;14.90;12.80;;;;;;5002792;28;46495;-85
2023/10/13 02:39:26;;;;;;;9.97;4.03;;;14.70;12.90;;;;;;4998715;28;48096;-86
2023/10/13 02:41:55;;;;;;;13.70;3.40;;;14.50;13.00;;;;;;5000887;28;46503;-85
2023/10/13 02:44:28;;;;;;;7.73;3.70;;;14.50;13.10;;;;;;5004198;28;46325;-86
2023/10/13 02:46:57;;;;;;;7.43;3.07;;;14.40;12.70;;;;;;5005843;28;46527;-86
2023/10/13 02:49:26;;;;;;;8.67;3.23;;;14.40;13.60;;;;;;5001208;28;48065;-86
2023/10/13 02:51:52;;;;;;;11.33;3.33;;;;;;;;;;5004575;28;46459;-87
2023/10/13 02:54:18;;;;;;;10.27;3.40;;;14.30;12.50;;;;;;5006070;28;46840;-82
2023/10/13 02:56:56;;;;;;;10.77;3.10;;;14.30;12.80;;;;;;5002865;28;45848;-87
2023/10/13 02:59:40;;;;;;;8.23;3.17;;;14.20;12.80;;;;;;5004634;28;48663;-86
2023/10/13 03:02:25;;;;;;;12.60;3.33;;;14.20;12.80;;;;;;5011191;28;46458;-86
2023/10/13 03:04:51;;;;;;;11.13;3.33;;;;;;;;;;5007861;28;46359;-85
2023/10/13 03:07:23;;;;;;;16.77;3.80;;;14.20;12.80;;;;;;5007128;28;46585;-86
2023/10/13 03:09:50;;;;;;;14.73;2.87;;;;;;;;;;5010497;28;49221;-86
2023/10/13 03:12:17;;;;;;;10.20;3.50;;;14.40;12.50;;;;;;5004752;28;46309;-86
2023/10/13 03:14:47;;;;;;;5.67;2.67;;;;;;;;;;5008193;28;46341;-86
2023/10/13 03:17:18;;;;;;;7.40;2.97;;;14.50;12.40;;;;;;5005567;28;45806;-85
2023/10/13 03:19:51;;;;;;;7.57;3.37;;;14.50;13.30;;;;;;5006018;28;48136;-87
2023/10/13 03:22:18;;;;;;;15.67;3.20;;;14.30;13.30;;;;;;5009388;28;45830;-88
2023/10/13 03:24:47;;;;;;;12.00;3.00;;;14.30;13.50;;;;;;5003842;28;46635;-88
2023/10/13 03:27:22;;;;;;;5.30;2.50;;;14.30;12.70;;;;;;5004651;28;46383;-88
2023/10/13 03:29:48;;;;;;;12.73;3.00;;;14.30;12.80;;;;;;5007254;28;48062;-88
2023/10/13 03:32:16;;;;;;;9.37;2.90;;;16.90;15.40;;;;;;5004484;28;46730;-88
2023/10/13 03:34:52;;;;;;;9.93;3.20;;;14.20;13.50;;;;;;5001249;28;46418;-86
2023/10/13 03:37:24;;;;;;;8.10;3.80;;;14.40;12.50;;;;;;5003910;28;46456;-85
2023/10/13 03:39:51;;;;;;;11.23;3.03;;;14.40;12.50;;;;;;5009813;28;48601;-85
2023/10/13 03:42:18;;;;;;;7.67;3.33;;;14.40;12.40;;;;;;5006855;28;45890;-87
2023/10/13 03:44:46;;;;;;;12.20;3.10;;;14.50;13.40;;;;;;4998138;28;46446;-87
2023/10/13 03:47:38;;;;;;;6.73;3.10;;;14.40;12.40;;;;;;5000726;28;46428;-86
2023/10/13 03:50:16;;;;;;;6.73;3.07;;;14.70;13.40;;;;;;4999681;28;47931;-85
2023/10/13 03:52:42;;;;;;;14.80;3.20;;;14.70;13.30;;;;;;4999374;28;46401;-85
2023/10/13 03:55:16;;;;;;;7.70;3.23;;;;;;;;;;4997617;28;46523;-86
2023/10/13 03:57:42;;;;;;;8.13;2.97;;;14.50;12.30;;;;;;5000036;28;46659;-87
2023/10/13 04:00:09;;;;;;;11.37;3.33;;;14.40;12.30;;;;;;4998087;28;46708;-86
2023/10/13 04:02:36;;;;;;;9.40;2.70;;;14.40;13.10;;;;;;5015432;28;46274;-86
2023/10/13 04:05:09;;;;;;;14.13;2.90;;;14.40;13.30;;;;;;5004230;28;46734;-87
2023/10/13 04:15:39;;;;;;;13.70;2.90;;;14.10;13.50;;;;;;5002645;28;46439;-86
2023/10/13 04:18:14;;;;;;;7.73;3.10;;;13.90;12.90;;;;;;5001596;28;46801;-87
2023/10/13 04:20:46;;;;;;;8.47;2.80;;;13.80;13.90;;;;;;5008165;28;48555;-83
2023/10/13 04:23:19;;;;;;;7.83;3.00;;;13.70;13.60;;;;;;5011084;28;46428;-86
2023/10/13 04:33:35;;;;;;;8.60;3.30;;;13.50;14.80;;;;;;5004620;28;46519;-87
2023/10/13 04:39:09;;;;;;;10.63;3.13;;;13.40;14.00;;;;;;4968790;28;46643;-88
2023/10/13 04:41:42;;;;;;;13.03;3.63;;;13.30;13.90;;;;;;4996856;28;49051;-87
2023/10/13 04:44:48;;;;;;;11.73;3.53;;;13.30;14.80;;;;;;5004995;28;46323;-88
2023/10/13 04:47:21;;;;;;;8.70;3.30;;;13.20;14.30;;;;;;5004598;28;46513;-87
2023/10/13 04:54:45;;;;;;;11.37;3.73;;;13.20;16.10;;;;;;5000337;28;46730;-84
2023/10/13 06:29:33;;;;;;;14.50;3.33;;;;;;;;;;4997943;28;46709;-84
2023/10/13 06:32:01;;;;;;;7.97;2.87;;;14.90;12.70;;;;;;4996904;28;46380;-84
2023/10/13 06:34:45;;;;;;;10.17;3.73;;;15.00;13.30;;;;;;4997791;28;46588;-87
2023/10/13 06:37:25;;;;;;;10.90;3.40;;;15.10;13.20;;;;;;4998262;28;46617;-85
2023/10/13 06:39:52;;;;;;;10.67;3.83;;;15.20;13.00;;;;;;4998905;28;49582;-84
2023/10/13 06:42:19;;;;;;;12.67;3.43;;;15.50;12.90;;;;;;5000277;28;46411;-84
2023/10/13 06:44:46;;;;;;;7.50;2.70;;;15.50;12.70;;;;;;4997119;28;46503;-83
2023/10/13 06:47:14;;;;;;;12.10;3.20;;;15.70;12.60;;;;;;4996381;28;47700;-84
2023/10/13 06:49:43;;;;;;;13.03;3.30;;;15.80;12.40;;;;;;5006048;28;48163;-83
2023/10/13 06:52:09;;;;;;;8.50;3.30;;;16.00;12.20;;;;;;5000451;28;46528;-84
2023/10/13 06:54:35;;;;;;;16.73;3.30;;;16.10;12.10;;;;;;4997323;28;46844;-81
2023/10/13 06:57:03;;;;;;;13.27;3.50;;;16.20;12.20;;;;;;5001067;28;46395;-81
2023/10/13 06:59:32;;;;;;;9.80;2.93;;;16.30;12.20;;;;;;4998543;28;47269;-79
2023/10/13 07:02:03;;;;;;;7.60;2.37;;;16.40;12.10;;;;;;4999588;28;46559;-81
2023/10/13 07:04:28;;;;;;;8.93;3.27;;;16.50;12.00;;;;;;4998439;28;46589;-85
2023/10/13 07:06:54;;;;;;;8.77;3.37;;;16.70;12.00;;;;;;5001385;28;46670;-84
2023/10/13 07:12:01;;;;;;;18.57;9.00;;;17.00;10.90;;;;;;4998499;28;46376;-83
2023/10/13 07:14:26;;;;;;;23.37;9.37;;;17.00;11.90;;;;;;4999634;28;46451;-84
2023/10/13 07:17:04;;;;;;;21.37;6.50;;;17.20;11.80;;;;;;4997703;28;46846;-83
2023/10/13 07:19:30;;;;;;;20.00;5.20;;;17.30;11.70;;;;;;4997690;28;46658;-83
2023/10/13 07:22:20;;;;;;;11.87;4.17;;;17.50;11.70;;;;;;4999341;28;46037;-86
2023/10/13 07:24:50;;;;;;;18.13;4.40;;;17.60;11.70;;;;;;4997927;28;46438;-84
2023/10/13 07:27:23;;;;;;;12.87;3.30;;;17.60;11.60;;;;;;4994822;28;46969;-86
2023/10/13 07:30:13;;;;;;;10.37;3.63;;;17.80;11.50;;;;;;4994768;28;46756;-85
2023/10/13 07:32:44;;;;;;;24.17;4.10;;;17.90;11.20;;;;;;4998310;28;46543;-86
2023/10/13 07:35:12;;;;;;;18.73;4.27;;;18.00;10.90;;;;;;4995651;28;46763;-85
2023/10/13 07:37:41;;;;;;;17.00;3.90;;;18.20;10.90;;;;;;4996588;28;46861;-84
2023/10/13 07:40:39;;;;;;;11.90;3.27;;;18.10;10.50;;;;;;4994656;28;48118;-82
2023/10/13 07:43:00;;;;;;;10.63;3.03;;;18.20;10.10;;;;;;4994366;28;47076;-85
2023/10/13 07:45:35;;;;;;;10.97;3.10;;;18.40;10.20;;;;;;4994002;28;46497;-84
2023/10/13 07:48:20;;;;;;;13.23;3.63;;;18.50;9.40;;;;;;4994969;28;45907;-85
2023/10/13 07:50:48;;;;;;;7.30;3.20;;;18.60;10.40;;;;;;4993951;28;49306;-83
2023/10/13 07:53:23;;;;;;;30.90;3.13;;;18.70;10.40;;;;;;4995151;28;46808;-86
2023/10/13 07:55:55;;;;;;;18.07;3.90;;;18.90;9.10;;;;;;4997064;28;46801;-85
2023/10/13 07:58:26;;;;;;;10.40;3.70;;;18.90;10.00;;;;;;4994458;28;47098;-85
2023/10/13 08:01:16;;;;;;;15.63;4.20;;;19.10;9.50;;;;;;4997223;28;46778;-82
2023/10/13 08:03:46;;;;;;;16.93;3.13;;;19.20;9.20;;;;;;5015066;28;46036;-85
2023/10/13 08:08:43;;;;;;;18.07;4.20;;;19.50;8.60;;;;;;4997054;28;46353;-86
2023/10/13 08:13:53;;;;;;;20.53;3.13;;;19.80;8.20;;;;;;4995152;28;46827;-86
2023/10/13 08:17:12;;;;;;;22.30;4.07;;;20.00;8.10;;;;;;4997290;28;46816;-83
2023/10/13 08:19:45;;;;;;;15.90;2.40;;;20.10;7.90;;;;;;4993299;28;46488;-82
2023/10/13 08:39:58;;;;;;;17.47;3.03;;;21.20;4.90;;;;;;5000214;28;46261;-86
2023/10/13 08:45:20;;;;;;;8.70;2.70;;;21.50;4.40;;;;;;5001805;28;46561;-85
2023/10/13 08:48:12;;;;;;;11.03;2.87;;;21.70;4.20;;;;;;5000380;28;46495;-88
2023/10/13 08:53:52;;;;;;;7.40;2.60;;;21.90;3.60;;;;;;5001956;28;46503;-87
2023/10/13 08:56:18;;;;;;;12.40;3.30;;;22.10;3.10;;;;;;5000150;28;46572;-87
2023/10/13 09:09:35;;;;;;;10.40;2.67;;;21.70;2.40;;;;;;4998747;28;46473;-83
2023/10/13 09:12:14;;;;;;;6.00;2.70;;;21.80;2.20;;;;;;4999903;28;46353;-85
2023/10/13 09:14:44;;;;;;;9.97;2.40;;;22.00;1.00;;;;;;4999600;28;47355;-86
2023/10/13 09:19:49;;;;;;;8.90;3.10;;;22.10;1.40;;;;;;5000988;28;46765;-86
2023/10/13 09:22:35;;;;;;;11.63;2.80;;;22.10;1.40;;;;;;5000898;28;46459;-82
2023/10/13 09:25:02;;;;;;;11.20;3.30;;;22.20;1.50;;;;;;5002633;28;47677;-84
2023/10/13 09:27:33;;;;;;;11.93;3.00;;;22.20;1.40;;;;;;4998368;28;46804;-86
2023/10/13 09:30:18;;;;;;;16.27;2.90;;;22.40;1.30;;;;;;5001019;28;46733;-86
2023/10/13 09:32:48;;;;;;;11.93;3.07;;;22.60;1.00;;;;;;5001061;28;46770;-84
2023/10/13 09:35:27;;;;;;;15.87;3.17;;;22.80;1.00;;;;;;5000275;28;46586;-85
2023/10/13 09:37:56;;;;;;;13.23;2.60;;;22.90;1.00;;;;;;5002937;28;46463;-83
2023/10/13 09:40:27;;;;;;;10.63;2.37;;;23.00;1.00;;;;;;4999227;28;46363;-80
2023/10/13 09:42:58;;;;;;;7.03;2.57;;;23.10;1.00;;;;;;5003117;28;46503;-85
2023/10/13 09:45:32;;;;;;;11.03;3.00;;;23.20;1.00;;;;;;5005722;28;46350;-85
2023/10/13 09:48:06;;;;;;;8.03;2.90;;;23.30;1.00;;;;;;4999369;28;47370;-85
2023/10/13 09:50:37;;;;;;;13.63;2.73;;;23.40;1.00;;;;;;4997984;28;46404;-86
2023/10/13 09:53:09;;;;;;;14.63;2.80;;;23.50;1.00;;;;;;4999911;28;46669;-85
2023/10/13 09:55:40;;;;;;;11.90;2.60;;;23.70;1.00;;;;;;4999128;28;48642;-84
2023/10/13 09:58:13;;;;;;;9.83;2.50;;;23.70;1.00;;;;;;5001553;28;46447;-85
2023/10/13 10:00:57;;;;;;;10.43;2.73;;;23.80;1.00;;;;;;5000382;28;46255;-85
2023/10/13 10:06:03;;;;;;;15.33;2.43;;;24.20;1.00;;;;;;4999678;28;46725;-86
2023/10/13 10:08:33;;;;;;;10.97;2.33;;;24.20;1.00;;;;;;4997338;28;47111;-84
2023/10/13 10:11:31;;;;;;;7.30;2.30;;;24.30;1.00;;;;;;4996950;28;46606;-86
2023/10/13 10:14:04;;;;;;;11.70;2.70;;;24.30;1.00;;;;;;5017126;28;46519;-88
2023/10/13 10:16:46;;;;;;;10.67;2.87;;;24.30;1.00;;;;;;5004875;28;46688;-83
2023/10/13 10:19:12;;;;;;;9.27;2.70;;;24.30;1.00;;;;;;4997476;28;46653;-81
2023/10/13 10:21:38;;;;;;;15.43;2.60;;;24.50;1.00;;;;;;4991022;28;46520;-85
2023/10/13 10:24:15;;;;;;;5.80;2.33;;;24.60;1.00;;;;;;5002033;28;46580;-83
2023/10/13 10:26:55;;;;;;;9.17;2.60;;;24.70;1.00;;;;;;4995143;28;48334;-84
2023/10/13 10:29:21;;;;;;;6.17;2.20;;;24.60;1.00;;;;;;5003197;28;46389;-86
2023/10/13 10:31:47;;;;;;;11.60;2.77;;;24.80;1.00;;;;;;5005782;28;45856;-84
2023/10/13 10:34:20;;;;;;;10.57;2.40;;;24.70;1.00;;;;;;5006330;28;46495;-85
2023/10/13 10:36:54;;;;;;;13.43;2.60;;;24.80;1.00;;;;;;5005632;28;46307;-87
2023/10/13 10:39:21;;;;;;;11.13;2.80;;;24.90;1.00;;;;;;5008384;28;46997;-87
2023/10/13 10:41:53;;;;;;;16.30;3.00;;;24.90;1.00;;;;;;5015729;28;46356;-84
2023/10/13 10:44:34;;;;;;;11.10;2.97;;;24.90;1.00;;;;;;5010728;28;46368;-88
2023/10/13 10:47:31;;;;;;;12.13;3.00;;;25.00;1.00;;;;;;5002972;28;48404;-89
2023/10/13 10:50:18;;;;;;;9.80;2.70;;;25.00;1.00;;;;;;5003145;28;46511;-86
2023/10/13 10:52:44;;;;;;;11.67;2.97;;;25.10;1.00;;;;;;5007030;28;46598;-87
2023/10/13 10:55:13;;;;;;;14.10;3.37;;;25.30;1.00;;;;;;5007012;28;46496;-84
2023/10/13 10:57:43;;;;;;;6.70;2.67;;;25.20;1.00;;;;;;5001480;28;46598;-84
2023/10/13 11:00:19;;;;;;;13.17;2.50;;;25.10;1.00;;;;;;5002220;28;46441;-85
2023/10/13 11:02:57;;;;;;;12.13;2.77;;;25.10;1.00;;;;;;5002509;28;46368;-85
2023/10/13 11:05:32;;;;;;;11.27;2.60;;;25.10;1.00;;;;;;5000919;28;46495;-82
2023/10/13 11:07:58;;;;;;;8.47;3.07;;;25.10;1.00;;;;;;4997749;28;46655;-86
2023/10/13 11:10:27;;;;;;;19.00;3.10;;;25.30;1.00;;;;;;5003479;28;46434;-83
2023/10/13 11:13:14;;;;;;;11.00;2.67;;;25.40;1.00;;;;;;5002867;28;46385;-84
2023/10/13 11:15:46;;;;;;;7.63;2.60;;;25.50;1.00;;;;;;4999392;28;46403;-85
2023/10/13 11:18:21;;;;;;;16.03;2.63;;;25.50;1.00;;;;;;5003345;28;48491;-85
2023/10/13 11:20:53;;;;;;;12.70;3.10;;;25.50;1.00;;;;;;5006120;28;46379;-85
2023/10/13 11:23:23;;;;;;;9.73;2.30;;;25.50;1.00;;;;;;5005313;28;46425;-86
2023/10/13 11:25:58;;;;;;;15.83;3.10;;;25.60;1.00;;;;;;5009172;28;46662;-82
2023/10/13 11:28:27;;;;;;;10.63;2.73;;;25.60;1.00;;;;;;5003952;28;49015;-83
2023/10/13 11:31:10;;;;;;;14.60;2.40;;;25.60;1.00;;;;;;5005843;28;46673;-85
2023/10/13 11:33:46;;;;;;;14.13;3.10;;;25.60;1.00;;;;;;5002274;28;45849;-84
2023/10/13 11:36:21;;;;;;;10.97;3.07;;;25.60;1.00;;;;;;5004327;28;46372;-84
2023/10/13 11:41:14;;;;;;;8.07;2.43;;;25.80;1.00;;;;;;5007272;28;46481;-84
2023/10/13 11:43:57;;;;;;;10.93;2.90;;;25.80;1.00;;;;;;5006072;28;46645;-84
2023/10/13 11:51:51;;;;;;;14.70;2.77;;;25.80;1.00;;;;;;5002720;28;46267;-84
2023/10/13 11:54:17;;;;;;;13.90;3.07;;;25.80;1.00;;;;;;5006184;28;46324;-85
2023/10/13 11:56:44;;;;;;;9.47;2.57;;;25.70;1.00;;;;;;5002248;28;46501;-83
2023/10/13 11:59:17;;;;;;;13.20;3.27;;;25.70;1.00;;;;;;5004138;28;48109;-84
2023/10/13 12:04:51;;;;;;;16.77;2.90;;;25.70;1.00;;;;;;5004032;28;46439;-83
2023/10/13 12:07:23;;;;;;;11.77;2.57;;;25.80;1.00;;;;;;4997440;28;46302;-82
2023/10/13 12:12:25;;;;;;;12.13;3.30;;;25.80;1.00;;;;;;4998650;28;46713;-84
2023/10/13 12:14:58;;;;;;;8.77;3.27;;;25.90;1.00;;;;;;5004476;28;46648;-84
2023/10/13 12:17:34;;;;;;;7.20;2.80;;;25.90;1.00;;;;;;5004599;28;46211;-83
2023/10/13 12:20:04;;;;;;;14.10;2.93;;;26.00;1.00;;;;;;4995799;28;48518;-83
2023/10/13 12:22:38;;;;;;;11.30;2.63;;;26.10;1.00;;;;;;5003435;28;46630;-84
2023/10/13 12:27:56;;;;;;;8.20;2.27;;;26.00;1.00;;;;;;5008352;28;46565;-84
2023/10/13 12:30:35;;;;;;;9.13;2.77;;;25.90;1.00;;;;;;5009177;28;46757;-85
2023/10/13 12:33:11;;;;;;;13.63;2.40;;;25.90;1.00;;;;;;5009164;28;46585;-85
2023/10/13 12:36:03;;;;;;;10.07;2.93;;;25.70;1.00;;;;;;5009652;28;46613;-85
2023/10/13 12:52:16;;;;;;;11.47;3.60;;;25.80;1.00;;;;;;5001595;28;46547;-83
2023/10/13 12:57:26;;;;;;;10.23;3.30;;;25.70;1.00;;;;;;4999146;28;47402;-82
2023/10/13 12:59:53;;;;;;;13.00;2.67;;;25.70;1.00;;;;;;5002673;28;46427;-84
2023/10/13 13:02:24;;;;;;;10.37;2.47;;;25.80;1.00;;;;;;5004527;28;46660;-84
2023/10/13 13:04:56;;;;;;;7.77;2.50;;;25.70;1.00;;;;;;5003454;28;46327;-85
2023/10/13 13:07:28;;;;;;;11.13;2.83;;;25.70;1.00;;;;;;5000142;28;46441;-88
2023/10/13 13:09:58;;;;;;;8.50;2.40;;;25.70;1.00;;;;;;4995111;28;46496;-83
2023/10/13 13:12:24;;;;;;;11.87;2.83;;;25.60;1.00;;;;;;5002884;28;48201;-84
2023/10/13 13:14:54;;;;;;;8.57;2.60;;;25.60;1.00;;;;;;4997200;28;46490;-83
2023/10/13 13:17:20;;;;;;;6.23;2.57;;;25.60;1.00;;;;;;4998925;28;46718;-85
2023/10/13 13:19:46;;;;;;;7.93;3.10;;;25.60;1.00;;;;;;4990797;28;46406;-85
2023/10/13 13:22:11;;;;;;;10.00;2.40;;;25.50;1.00;;;;;;4998080;28;46900;-84
2023/10/13 13:24:47;;;;;;;8.03;2.97;;;25.60;1.00;;;;;;4999368;28;47046;-83
2023/10/13 13:27:17;;;;;;;9.00;3.00;;;25.50;1.00;;;;;;5000175;28;46450;-84
2023/10/13 13:29:46;;;;;;;11.83;3.33;;;25.60;1.00;;;;;;4996600;28;46603;-84
2023/10/13 13:32:24;;;;;;;11.63;2.57;;;25.40;1.00;;;;;;4998247;28;46771;-85
2023/10/13 13:35:07;;;;;;;8.70;2.40;;;25.40;1.00;;;;;;4998413;28;46819;-83
2023/10/13 13:37:33;;;;;;;7.47;2.83;;;25.30;1.00;;;;;;4999420;28;46445;-83
2023/10/13 13:40:14;;;;;;;6.70;3.10;;;25.50;1.00;;;;;;4996323;28;46596;-86
2023/10/13 13:42:44;;;;;;;11.10;3.13;;;25.40;1.00;;;;;;4997326;28;48163;-84
2023/10/13 13:45:21;;;;;;;8.93;3.70;;;25.40;1.00;;;;;;5000086;28;46420;-86
2023/10/13 13:47:53;;;;;;;5.97;2.90;;;25.40;1.00;;;;;;4996787;28;46793;-84
2023/10/13 13:50:26;;;;;;;11.37;2.77;;;25.40;1.00;;;;;;4994873;28;46577;-82
2023/10/13 13:52:56;;;;;;;10.10;2.60;;;25.40;1.00;;;;;;4991956;28;48214;-84
2023/10/13 13:55:28;;;;;;;8.50;2.57;;;25.40;1.00;;;;;;4987675;28;46761;-84
2023/10/13 13:57:56;;;;;;;7.97;3.00;;;25.40;1.00;;;;;;4999985;28;46458;-84
2023/10/13 14:00:37;;;;;;;18.07;2.90;;;25.30;1.00;;;;;;5000173;28;46797;-82
2023/10/13 14:03:12;;;;;;;8.93;2.90;;;25.30;1.00;;;;;;5000168;28;47544;-85
2023/10/13 14:05:45;;;;;;;9.57;3.30;;;25.30;1.00;;;;;;4999570;28;46875;-87
2023/10/13 14:08:15;;;;;;;10.33;3.00;;;25.30;1.00;;;;;;5000153;28;46760;-85
2023/10/13 14:13:48;;;;;;;8.03;2.90;;;25.20;1.00;;;;;;5003908;28;46446;-87
2023/10/13 14:16:16;;;;;;;7.93;3.07;;;25.10;1.00;;;;;;5002339;28;46456;-87
2023/10/13 14:18:49;;;;;;;7.60;3.20;;;25.10;1.00;;;;;;5000935;28;46414;-84
2023/10/13 14:21:18;;;;;;;12.80;3.00;;;25.10;1.00;;;;;;5001217;28;46668;-83
2023/10/13 14:23:48;;;;;;;8.00;3.03;;;25.10;1.00;;;;;;4998144;28;48216;-84
2023/10/13 14:26:20;;;;;;;8.10;3.00;;;25.10;1.00;;;;;;4999679;28;45852;-84
2023/10/13 14:28:51;;;;;;;10.77;3.03;;;25.00;1.00;;;;;;4987869;28;46736;-81
2023/10/13 14:31:18;;;;;;;9.80;2.93;;;25.00;1.00;;;;;;5001353;28;46502;-83
2023/10/13 14:33:47;;;;;;;10.63;2.57;;;25.00;1.00;;;;;;4999337;28;47411;-84
2023/10/13 14:36:14;;;;;;;7.57;3.43;;;25.00;1.00;;;;;;5000369;28;46725;-81
2023/10/13 14:38:44;;;;;;;10.77;3.13;;;24.90;1.00;;;;;;5000453;28;46750;-86
2023/10/13 14:41:09;;;;;;;9.57;2.57;;;24.90;1.00;;;;;;5002789;28;46598;-84
2023/10/13 14:43:35;;;;;;;17.53;2.97;;;24.90;1.00;;;;;;5001220;28;46607;-85
2023/10/13 14:46:01;;;;;;;13.80;3.80;;;24.70;1.00;;;;;;4992901;28;47133;-87
2023/10/13 14:48:27;;;;;;;8.33;2.87;;;24.70;1.00;;;;;;4992294;28;47185;-83
2023/10/13 14:50:52;;;;;;;12.27;2.90;;;24.80;1.00;;;;;;4997423;28;46500;-83
2023/10/13 14:53:19;;;;;;;11.70;3.20;;;24.70;1.00;;;;;;4996429;28;48039;-84
2023/10/13 14:55:45;;;;;;;14.03;3.20;;;24.70;1.00;;;;;;4998206;28;46674;-84
2023/10/13 14:58:16;;;;;;;6.40;3.10;;;24.60;1.00;;;;;;5000248;28;46410;-84
2023/10/13 15:00:45;;;;;;;9.80;3.10;;;24.60;1.00;;;;;;4997318;28;46747;-83
2023/10/13 15:03:11;;;;;;;7.30;3.00;;;24.60;1.00;;;;;;4999527;28;46470;-85
2023/10/13 15:05:43;;;;;;;6.53;2.50;;;24.60;1.00;;;;;;5001486;28;46514;-86
2023/10/13 15:08:09;;;;;;;5.77;2.80;;;24.50;1.00;;;;;;4997055;28;45935;-86
2023/10/13 15:10:36;;;;;;;13.60;3.77;;;24.40;1.00;;;;;;4993286;28;46555;-83
2023/10/13 15:13:05;;;;;;;9.27;3.10;;;24.40;1.00;;;;;;5012452;28;46889;-83
2023/10/13 15:15:32;;;;;;;9.00;3.20;;;24.40;1.00;;;;;;5002020;28;46734;-82
2023/10/13 15:17:58;;;;;;;6.93;2.80;;;24.40;1.00;;;;;;5000735;28;46914;-83
2023/10/13 15:20:23;;;;;;;12.37;3.57;;;24.30;1.00;;;;;;4999563;28;46666;-83
2023/10/13 15:22:49;;;;;;;10.83;3.10;;;24.20;1.00;;;;;;5000396;28;46484;-81
2023/10/13 15:25:28;;;;;;;10.17;3.40;;;24.00;1.00;;;;;;4999858;28;46725;-84
2023/10/13 15:27:56;;;;;;;12.47;3.23;;;24.10;1.00;;;;;;5000152;28;46694;-85
2023/10/13 15:30:25;;;;;;;8.70;2.70;;;23.90;1.00;;;;;;4987674;28;46846;-85
2023/10/13 15:32:51;;;;;;;14.10;3.60;;;23.80;1.00;;;;;;5002771;28;46191;-85
2023/10/13 15:35:18;;;;;;;7.80;3.20;;;23.70;1.00;;;;;;5003237;28;46710;-85
2023/10/13 15:37:47;;;;;;;7.73;2.77;;;23.50;1.00;;;;;;4992483;28;46387;-84
2023/10/13 15:40:15;;;;;;;8.20;3.10;;;23.50;1.00;;;;;;5003074;28;46656;-85
2023/10/13 15:42:42;;;;;;;13.00;3.53;;;23.30;1.00;;;;;;5001845;28;46371;-82
2023/10/13 15:45:16;;;;;;;11.73;3.20;;;23.20;1.00;;;;;;5000001;28;46943;-84
2023/10/13 15:47:46;;;;;;;6.50;2.83;;;23.10;1.00;;;;;;4999795;28;47151;-83
2023/10/13 15:50:15;;;;;;;9.63;2.87;;;23.10;1.00;;;;;;4998321;28;47089;-86
2023/10/13 15:52:45;;;;;;;13.13;2.97;;;23.00;1.00;;;;;;4997000;28;46572;-84
2023/10/13 15:55:13;;;;;;;17.03;4.73;;;22.90;1.00;;;;;;4997943;28;46454;-83
2023/10/13 15:57:39;;;;;;;5.70;2.43;;;22.80;1.00;;;;;;5000695;28;46958;-83
2023/10/13 16:00:25;;;;;;;6.90;3.10;;;22.70;1.00;;;;;;4997817;28;46870;-85
2023/10/13 16:02:52;;;;;;;7.40;3.30;;;22.60;1.00;;;;;;4999000;28;47567;-85
2023/10/13 16:05:18;;;;;;;11.13;3.40;;;22.50;1.00;;;;;;4997678;28;46843;-86
2023/10/13 16:07:44;;;;;;;12.60;3.57;;;22.50;1.00;;;;;;4996714;28;46491;-85
2023/10/13 16:10:11;;;;;;;7.77;3.30;;;22.40;1.00;;;;;;4997109;28;46269;-83
2023/10/13 16:12:37;;;;;;;10.30;3.37;;;22.30;1.00;;;;;;4995595;28;48384;-86
2023/10/13 16:15:08;;;;;;;14.27;3.63;;;22.20;1.00;;;;;;4996552;28;46508;-86
2023/10/13 16:17:33;;;;;;;12.73;4.40;;;22.00;1.00;;;;;;4997326;28;46652;-86
2023/10/13 16:19:59;;;;;;;12.33;3.77;;;21.90;1.00;;;;;;4996192;28;46419;-88
2023/10/13 16:22:25;;;;;;;34.53;10.70;;;21.70;1.00;;;;;;4998084;28;47423;-85
2023/10/13 16:24:51;;;;;;;11.87;3.70;;;21.60;1.00;;;;;;4997486;28;46524;-83
2023/10/13 16:27:19;;;;;;;16.23;5.90;;;21.40;1.00;;;;;;4994569;28;46785;-84
2023/10/13 16:29:44;;;;;;;29.57;6.10;;;21.40;1.00;;;;;;4995519;28;46772;-83
2023/10/13 16:32:10;;;;;;;17.10;4.50;;;21.10;1.00;;;;;;4996918;28;48042;-84
2023/10/13 16:34:37;;;;;;;7.87;3.50;;;20.90;1.00;;;;;;5000291;28;47785;-86